createdAt,value
2022-09-11T00:00:57.261Z,19.60
2022-09-11T00:01:57.266Z,19.20
2022-09-11T00:02:57.266Z,19.90
2022-09-11T00:03:57.206Z,19.80
2022-09-11T00:04:57.205Z,19.00
2022-09-11T00:05:57.225Z,19.70
2022-09-11T00:06:57.183Z,19.40
2022-09-11T00:07:57.167Z,20.30
2022-09-11T00:08:57.157Z,20.40
2022-09-11T00:09:57.160Z,19.80
2022-09-11T00:10:57.145Z,19.10
2022-09-11T00:11:57.143Z,19.80
2022-09-11T00:12:57.111Z,20.30
2022-09-11T00:13:57.095Z,20.70
2022-09-11T00:14:57.088Z,20.00
2022-09-11T00:15:57.116Z,19.80
2022-09-11T00:16:57.067Z,20.00
2022-09-11T00:17:57.062Z,19.80
2022-09-11T00:18:57.046Z,20.90
2022-09-11T00:19:57.032Z,21.30
2022-09-11T00:20:57.037Z,21.60
2022-09-11T00:21:57.037Z,21.90
2022-09-11T00:22:57.007Z,23.00
2022-09-11T00:23:56.992Z,21.70
2022-09-11T00:24:56.980Z,21.60
2022-09-11T00:25:57.095Z,22.10
2022-09-11T00:26:56.955Z,22.20
2022-09-11T00:27:56.940Z,22.50
2022-09-11T00:28:56.934Z,22.20
2022-09-11T00:29:56.917Z,21.70
2022-09-11T00:30:56.974Z,21.80
2022-09-11T00:31:56.908Z,23.00
2022-09-11T00:32:56.890Z,20.80
2022-09-11T00:33:56.874Z,21.40
2022-09-11T00:34:56.867Z,22.30
2022-09-11T00:35:56.864Z,21.80
2022-09-11T00:36:56.846Z,22.10
2022-09-11T00:37:56.851Z,22.00
2022-09-11T00:38:56.825Z,21.70
2022-09-11T00:39:56.862Z,23.80
2022-09-11T00:40:56.802Z,22.80
2022-09-11T00:41:56.800Z,21.80
2022-09-11T00:42:56.780Z,23.60
2022-09-11T00:43:56.767Z,23.50
2022-09-11T00:44:56.755Z,22.50
2022-09-11T00:46:04.356Z,22.60
2022-09-11T00:46:56.745Z,22.90
2022-09-11T00:47:56.722Z,23.10
2022-09-11T00:48:56.710Z,23.30
2022-09-11T00:49:56.696Z,23.10
2022-09-11T00:50:56.689Z,23.30
2022-09-11T00:51:56.685Z,23.00
2022-09-11T00:52:56.673Z,23.20
2022-09-11T00:53:56.673Z,23.10
2022-09-11T00:54:56.649Z,23.30
2022-09-11T00:55:56.640Z,24.30
2022-09-11T00:56:56.634Z,23.40
2022-09-11T00:57:56.609Z,24.10
2022-09-11T00:58:56.612Z,24.00
2022-09-11T00:59:56.585Z,23.60
2022-09-11T01:00:56.692Z,23.60
2022-09-11T01:01:56.619Z,23.40
2022-09-11T01:02:56.556Z,24.60
2022-09-11T01:03:56.541Z,24.20
2022-09-11T01:04:56.533Z,24.70
2022-09-11T01:05:56.533Z,24.30
2022-09-11T01:06:56.514Z,25.10
2022-09-11T01:07:56.499Z,24.20
2022-09-11T01:08:56.492Z,24.30
2022-09-11T01:09:56.493Z,23.10
2022-09-11T01:10:56.478Z,23.80
2022-09-11T01:11:56.452Z,24.50
2022-09-11T01:12:56.445Z,24.70
2022-09-11T01:13:56.433Z,25.80
2022-09-11T01:14:56.423Z,26.50
2022-09-11T01:15:56.491Z,25.60
2022-09-11T01:16:56.420Z,24.40
2022-09-11T01:17:56.397Z,23.80
2022-09-11T01:18:56.380Z,26.00
2022-09-11T01:19:56.362Z,25.10
2022-09-11T01:20:56.355Z,26.90
2022-09-11T01:21:56.341Z,26.30
2022-09-11T01:22:56.345Z,26.60
2022-09-11T01:23:56.321Z,26.50
2022-09-11T01:24:56.315Z,25.80
2022-09-11T01:25:56.329Z,27.90
2022-09-11T01:26:56.290Z,28.30
2022-09-11T01:27:56.294Z,28.60
2022-09-11T01:28:56.284Z,28.50
2022-09-11T01:29:56.253Z,28.60
2022-09-11T01:30:56.256Z,28.20
2022-09-11T01:31:56.244Z,27.50
2022-09-11T01:32:56.224Z,27.10
2022-09-11T01:33:56.208Z,27.90
2022-09-11T01:34:56.202Z,27.20
2022-09-11T01:35:56.185Z,26.30
2022-09-11T01:36:56.189Z,27.70
2022-09-11T01:37:56.176Z,29.30
2022-09-11T01:38:56.152Z,28.00
2022-09-11T01:39:56.201Z,27.70
2022-09-11T01:40:56.145Z,28.30
2022-09-11T01:41:56.144Z,26.80
2022-09-11T01:42:56.114Z,28.30
2022-09-11T01:43:56.103Z,29.50
2022-09-11T01:44:56.089Z,29.70
2022-09-11T01:45:56.156Z,29.70
2022-09-11T01:46:56.064Z,29.20
2022-09-11T01:47:56.068Z,30.40
2022-09-11T01:48:56.048Z,30.00
2022-09-11T01:49:56.039Z,29.20
2022-09-11T01:50:56.021Z,28.80
2022-09-11T01:51:56.017Z,28.60
2022-09-11T01:52:56.011Z,29.70
2022-09-11T01:53:55.990Z,30.10
2022-09-11T01:54:56.601Z,29.50
2022-09-11T01:55:55.969Z,30.70
2022-09-11T01:56:55.955Z,30.70
2022-09-11T01:57:55.983Z,30.40
2022-09-11T01:58:55.931Z,30.70
2022-09-11T01:59:55.925Z,29.70
2022-09-11T02:00:55.956Z,31.30
2022-09-11T02:01:55.930Z,32.30
2022-09-11T02:02:55.886Z,30.90
2022-09-11T02:03:55.891Z,32.10
2022-09-11T02:04:55.869Z,31.70
2022-09-11T02:05:55.860Z,31.60
2022-09-11T02:06:55.842Z,30.40
2022-09-11T02:07:55.839Z,32.40
2022-09-11T02:08:55.830Z,31.70
2022-09-11T02:09:55.828Z,29.80
2022-09-11T02:10:55.808Z,32.70
2022-09-11T02:11:55.794Z,30.80
2022-09-11T02:12:55.786Z,31.80
2022-09-11T02:13:55.790Z,32.50
2022-09-11T02:14:55.753Z,31.20
2022-09-11T02:15:55.856Z,33.70
2022-09-11T02:16:55.731Z,31.90
2022-09-11T02:17:55.735Z,34.40
2022-09-11T02:18:55.708Z,34.80
2022-09-11T02:19:55.720Z,34.00
2022-09-11T02:20:55.702Z,34.60
2022-09-11T02:21:55.679Z,33.90
2022-09-11T02:22:55.664Z,34.50
2022-09-11T02:23:55.658Z,36.70
2022-09-11T02:24:55.653Z,36.30
2022-09-11T02:25:55.636Z,36.00
2022-09-11T02:26:55.620Z,34.90
2022-09-11T02:27:55.613Z,34.40
2022-09-11T02:28:55.611Z,34.60
2022-09-11T02:29:55.612Z,34.40
2022-09-11T02:30:55.576Z,35.10
2022-09-11T02:31:55.571Z,35.40
2022-09-11T02:32:55.571Z,34.80
2022-09-11T02:33:55.549Z,36.90
2022-09-11T02:34:55.557Z,35.30
2022-09-11T02:35:55.526Z,35.30
2022-09-11T02:36:55.521Z,36.10
2022-09-11T02:37:55.506Z,38.00
2022-09-11T02:38:55.488Z,38.20
2022-09-11T02:39:55.580Z,46.30
2022-09-11T02:40:55.464Z,41.10
2022-09-11T02:41:55.469Z,45.40
2022-09-11T02:42:55.449Z,43.70
2022-09-11T02:43:55.438Z,47.70
2022-09-11T02:44:55.434Z,46.80
2022-09-11T02:45:55.496Z,46.20
2022-09-11T02:47:02.914Z,44.40
2022-09-11T02:47:55.403Z,44.70
2022-09-11T02:48:55.376Z,45.90
2022-09-11T02:49:55.381Z,44.30
2022-09-11T02:50:55.354Z,50.70
2022-09-11T02:51:55.348Z,44.90
2022-09-11T02:52:55.341Z,46.20
2022-09-11T02:53:55.328Z,50.70
2022-09-11T02:54:55.310Z,50.40
2022-09-11T02:55:55.305Z,46.20
2022-09-11T02:56:55.301Z,43.90
2022-09-11T02:57:55.281Z,47.70
2022-09-11T02:58:55.269Z,40.10
2022-09-11T02:59:55.270Z,44.80
2022-09-11T03:00:55.270Z,44.80
2022-09-11T03:01:55.505Z,48.70
2022-09-11T03:02:55.221Z,53.60
2022-09-11T03:03:55.231Z,50.20
2022-09-11T03:04:55.254Z,55.80
2022-09-11T03:05:55.203Z,53.70
2022-09-11T03:06:55.179Z,59.10
2022-09-11T03:07:55.172Z,54.10
2022-09-11T03:08:55.155Z,52.70
2022-09-11T03:09:55.148Z,50.50
2022-09-11T03:10:55.144Z,53.00
2022-09-11T03:11:55.128Z,51.30
2022-09-11T03:12:55.111Z,50.30
2022-09-11T03:13:55.105Z,45.80
2022-09-11T03:14:55.088Z,51.70
2022-09-11T03:15:55.136Z,58.80
2022-09-11T03:16:55.077Z,60.20
2022-09-11T03:17:55.092Z,50.90
2022-09-11T03:18:55.044Z,48.50
2022-09-11T03:19:55.040Z,50.00
2022-09-11T03:20:55.034Z,49.70
2022-09-11T03:21:55.018Z,49.60
2022-09-11T03:22:55.000Z,48.20
2022-09-11T03:23:55.638Z,52.60
2022-09-11T03:24:54.977Z,49.20
2022-09-11T03:25:54.982Z,49.80
2022-09-11T03:26:54.960Z,45.40
2022-09-11T03:27:54.961Z,50.00
2022-09-11T03:28:54.947Z,57.00
2022-09-11T03:29:54.926Z,49.30
2022-09-11T03:30:54.928Z,61.70
2022-09-11T03:31:54.943Z,54.50
2022-09-11T03:32:54.889Z,52.10
2022-09-11T03:33:54.914Z,45.90
2022-09-11T03:34:54.866Z,61.20
2022-09-11T03:35:54.878Z,57.20
2022-09-11T03:36:54.847Z,52.40
2022-09-11T03:37:54.853Z,51.10
2022-09-11T03:38:54.823Z,48.20
2022-09-11T03:39:54.882Z,61.40
2022-09-11T03:40:54.813Z,49.10
2022-09-11T03:41:54.795Z,47.30
2022-09-11T03:42:54.779Z,47.20
2022-09-11T03:43:54.773Z,46.50
2022-09-11T03:44:54.755Z,47.00
2022-09-11T03:45:54.770Z,46.50
2022-09-11T03:46:54.733Z,48.30
2022-09-11T03:47:54.742Z,51.70
2022-09-11T03:48:54.714Z,47.80
2022-09-11T03:49:54.725Z,50.50
2022-09-11T03:50:54.690Z,48.40
2022-09-11T03:51:54.693Z,52.30
2022-09-11T03:52:54.669Z,52.30
2022-09-11T03:53:54.661Z,47.20
2022-09-11T03:54:54.647Z,45.60
2022-09-11T03:55:54.640Z,45.20
2022-09-11T03:56:54.637Z,47.10
2022-09-11T03:57:54.616Z,47.30
2022-09-11T03:58:54.611Z,44.00
2022-09-11T03:59:54.597Z,46.40
2022-09-11T04:00:54.635Z,42.40
2022-09-11T04:01:54.605Z,44.80
2022-09-11T04:02:54.557Z,41.90
2022-09-11T04:03:54.548Z,47.20
2022-09-11T04:04:54.533Z,42.70
2022-09-11T04:05:54.563Z,46.40
2022-09-11T04:06:54.512Z,45.40
2022-09-11T04:07:54.511Z,44.90
2022-09-11T04:08:54.488Z,46.40
2022-09-11T04:09:54.483Z,48.80
2022-09-11T04:10:54.489Z,50.00
2022-09-11T04:11:54.463Z,50.20
2022-09-11T04:12:54.444Z,49.10
2022-09-11T04:13:54.438Z,53.80
2022-09-11T04:14:54.422Z,49.70
2022-09-11T04:15:54.437Z,52.80
2022-09-11T04:16:54.402Z,60.20
2022-09-11T04:17:54.395Z,55.00
2022-09-11T04:18:54.380Z,50.00
2022-09-11T04:19:54.374Z,47.90
2022-09-11T04:20:54.374Z,50.90
2022-09-11T04:21:54.386Z,60.80
2022-09-11T04:22:54.336Z,55.50
2022-09-11T04:23:54.343Z,52.60
2022-09-11T04:24:54.312Z,54.70
2022-09-11T04:25:54.306Z,52.40
2022-09-11T04:26:58.614Z,54.60
2022-09-11T04:27:55.284Z,53.70
2022-09-11T04:28:54.267Z,61.20
2022-09-11T04:29:54.272Z,54.90
2022-09-11T04:30:54.244Z,55.70
2022-09-11T04:31:54.311Z,57.50
2022-09-11T04:32:54.222Z,60.90
2022-09-11T04:33:57.528Z,57.60
2022-09-11T04:34:54.217Z,56.00
2022-09-11T04:35:54.194Z,60.00
2022-09-11T04:36:54.182Z,58.60
2022-09-11T04:37:54.195Z,52.50
2022-09-11T04:38:54.202Z,60.90
2022-09-11T04:39:54.195Z,55.80
2022-09-11T04:40:54.150Z,55.50
2022-09-11T04:41:54.128Z,58.30
2022-09-11T04:42:54.118Z,60.80
2022-09-11T04:43:54.131Z,55.40
2022-09-11T04:44:54.100Z,58.60
2022-09-11T04:45:54.113Z,59.50
2022-09-11T04:46:54.075Z,60.40
2022-09-11T04:48:01.561Z,55.90
2022-09-11T04:48:54.044Z,64.80
2022-09-11T04:49:54.054Z,58.90
2022-09-11T04:50:54.035Z,60.70
2022-09-11T04:51:54.018Z,60.90
2022-09-11T04:52:54.008Z,60.80
2022-09-11T04:53:54.016Z,60.80
2022-09-11T04:54:53.990Z,60.70
2022-09-11T04:55:53.972Z,65.90
2022-09-11T04:56:53.970Z,57.50
2022-09-11T04:57:53.951Z,64.50
2022-09-11T04:58:53.935Z,61.00
2022-09-11T04:59:53.931Z,59.20
2022-09-11T05:00:53.974Z,63.40
2022-09-11T05:01:53.969Z,53.90
2022-09-11T05:02:53.891Z,53.90
2022-09-11T05:03:53.888Z,59.70
2022-09-11T05:04:53.869Z,64.50
2022-09-11T05:05:53.862Z,67.70
2022-09-11T05:06:53.857Z,62.90
2022-09-11T05:07:53.842Z,68.60
2022-09-11T05:08:53.825Z,65.30
2022-09-11T05:09:53.865Z,68.60
2022-09-11T05:10:53.804Z,59.00
2022-09-11T05:11:53.814Z,66.60
2022-09-11T05:12:53.803Z,63.40
2022-09-11T05:13:53.775Z,63.50
2022-09-11T05:14:53.757Z,63.90
2022-09-11T05:15:53.754Z,64.30
2022-09-11T05:16:53.747Z,57.50
2022-09-11T05:17:53.730Z,60.80
2022-09-11T05:18:53.726Z,58.20
2022-09-11T05:19:53.719Z,64.00
2022-09-11T05:20:53.694Z,60.10
2022-09-11T05:21:53.686Z,57.80
2022-09-11T05:22:53.687Z,66.90
2022-09-11T05:23:53.665Z,51.70
2022-09-11T05:24:53.647Z,56.90
2022-09-11T05:25:53.662Z,65.00
2022-09-11T05:26:53.626Z,61.30
2022-09-11T05:27:53.630Z,62.70
2022-09-11T05:28:53.624Z,54.40
2022-09-11T05:29:53.597Z,53.10
2022-09-11T05:30:53.581Z,65.60
2022-09-11T05:31:53.635Z,67.90
2022-09-11T05:32:53.589Z,54.90
2022-09-11T05:33:53.561Z,55.30
2022-09-11T05:34:53.537Z,51.20
2022-09-11T05:35:53.543Z,56.50
2022-09-11T05:36:53.515Z,49.10
2022-09-11T05:37:53.508Z,56.30
2022-09-11T05:38:53.493Z,56.40
2022-09-11T05:39:53.578Z,50.90
2022-09-11T05:40:53.484Z,53.80
2022-09-11T05:41:53.485Z,55.30
2022-09-11T05:42:53.451Z,55.80
2022-09-11T05:43:53.456Z,51.00
2022-09-11T05:44:53.425Z,54.30
2022-09-11T05:45:53.482Z,51.60
2022-09-11T05:46:53.404Z,57.90
2022-09-11T05:47:55.956Z,59.30
2022-09-11T05:48:53.382Z,55.00
2022-09-11T05:49:53.377Z,54.80
2022-09-11T05:50:53.376Z,53.50
2022-09-11T05:51:53.351Z,51.90
2022-09-11T05:52:53.346Z,51.90
2022-09-11T05:53:53.339Z,51.30
2022-09-11T05:54:53.320Z,50.90
2022-09-11T05:55:53.316Z,49.90
2022-09-11T05:56:53.298Z,45.70
2022-09-11T05:57:53.304Z,45.90
2022-09-11T05:58:53.284Z,43.20
2022-09-11T05:59:53.259Z,43.80
2022-09-11T06:00:53.326Z,43.40
2022-09-11T06:01:53.263Z,41.80
2022-09-11T06:02:53.245Z,42.90
2022-09-11T06:03:53.221Z,40.60
2022-09-11T06:04:53.211Z,48.10
2022-09-11T06:05:53.205Z,46.80
2022-09-11T06:06:53.199Z,46.80
2022-09-11T06:07:53.187Z,48.80
2022-09-11T06:08:53.168Z,48.00
2022-09-11T06:09:53.150Z,49.20
2022-09-11T06:10:53.144Z,47.30
2022-09-11T06:11:53.128Z,49.60
2022-09-11T06:12:53.121Z,50.10
2022-09-11T06:13:53.140Z,47.60
2022-09-11T06:14:53.100Z,52.30
2022-09-11T06:15:53.083Z,49.20
2022-09-11T06:16:53.150Z,48.10
2022-09-11T06:17:53.065Z,50.00
2022-09-11T06:18:53.055Z,48.90
2022-09-11T06:19:53.039Z,51.90
2022-09-11T06:20:53.033Z,51.10
2022-09-11T06:21:53.059Z,50.10
2022-09-11T06:22:53.012Z,50.10
2022-09-11T06:23:53.007Z,51.70
2022-09-11T06:24:52.989Z,53.30
2022-09-11T06:25:52.973Z,48.90
2022-09-11T06:26:52.968Z,51.70
2022-09-11T06:27:52.964Z,48.70
2022-09-11T06:28:52.956Z,51.20
2022-09-11T06:29:52.949Z,51.80
2022-09-11T06:30:53.001Z,52.40
2022-09-11T06:31:52.907Z,53.70
2022-09-11T06:32:52.902Z,50.00
2022-09-11T06:33:52.885Z,51.40
2022-09-11T06:34:52.878Z,52.40
2022-09-11T06:35:52.862Z,51.70
2022-09-11T06:36:52.868Z,50.30
2022-09-11T06:37:52.843Z,50.70
2022-09-11T06:38:52.840Z,51.10
2022-09-11T06:39:52.871Z,52.00
2022-09-11T06:40:52.814Z,49.60
2022-09-11T06:41:52.810Z,48.20
2022-09-11T06:42:52.791Z,47.80
2022-09-11T06:43:52.780Z,47.30
2022-09-11T06:44:52.768Z,49.40
2022-09-11T06:45:52.819Z,49.20
2022-09-11T06:46:52.748Z,47.30
2022-09-11T06:47:52.742Z,46.60
2022-09-11T06:49:00.223Z,47.90
2022-09-11T06:49:52.707Z,47.50
2022-09-11T06:50:52.702Z,47.60
2022-09-11T06:51:52.705Z,45.20
2022-09-11T06:52:52.679Z,45.90
2022-09-11T06:53:52.663Z,45.00
2022-09-11T06:54:52.766Z,42.20
2022-09-11T06:55:52.642Z,40.10
2022-09-11T06:56:52.647Z,41.40
2022-09-11T06:57:52.622Z,40.60
2022-09-11T06:58:52.616Z,39.90
2022-09-11T06:59:52.733Z,38.30
2022-09-11T07:00:52.644Z,39.40
2022-09-11T07:01:52.736Z,39.30
2022-09-11T07:02:52.570Z,38.30
2022-09-11T07:03:52.565Z,39.60
2022-09-11T07:04:52.547Z,37.60
2022-09-11T07:05:52.531Z,38.10
2022-09-11T07:06:52.525Z,35.60
2022-09-11T07:07:52.512Z,37.50
2022-09-11T07:08:52.516Z,36.40
2022-09-11T07:09:52.493Z,35.20
2022-09-11T07:10:52.480Z,35.80
2022-09-11T07:11:52.464Z,35.40
2022-09-11T07:12:52.470Z,36.20
2022-09-11T07:13:52.462Z,32.00
2022-09-11T07:14:52.436Z,32.90
2022-09-11T07:15:52.421Z,33.70
2022-09-11T07:16:52.444Z,31.80
2022-09-11T07:17:52.424Z,32.40
2022-09-11T07:18:52.392Z,30.70
2022-09-11T07:19:52.464Z,30.80
2022-09-11T07:20:52.370Z,31.10
2022-09-11T07:21:52.362Z,31.50
2022-09-11T07:22:52.352Z,31.20
2022-09-11T07:23:52.333Z,30.60
2022-09-11T07:24:52.401Z,28.80
2022-09-11T07:25:52.322Z,29.20
2022-09-11T07:26:52.346Z,28.80
2022-09-11T07:27:52.288Z,29.60
2022-09-11T07:28:52.281Z,28.40
2022-09-11T07:29:52.347Z,28.20
2022-09-11T07:30:52.299Z,28.40
2022-09-11T07:31:52.243Z,27.40
2022-09-11T07:32:52.240Z,27.80
2022-09-11T07:33:52.241Z,25.70
2022-09-11T07:34:52.225Z,26.50
2022-09-11T07:35:52.216Z,26.20
2022-09-11T07:36:52.204Z,25.70
2022-09-11T07:37:52.177Z,27.30
2022-09-11T07:38:52.171Z,25.70
2022-09-11T07:39:52.321Z,25.40
2022-09-11T07:40:52.160Z,25.40
2022-09-11T07:41:52.133Z,24.80
2022-09-11T07:42:52.125Z,24.20
2022-09-11T07:43:52.137Z,23.50
2022-09-11T07:44:52.101Z,23.80
2022-09-11T07:45:52.107Z,23.90
2022-09-11T07:46:52.080Z,23.90
2022-09-11T07:47:52.084Z,23.80
2022-09-11T07:48:52.058Z,23.10
2022-09-11T07:49:52.074Z,23.20
2022-09-11T07:50:52.052Z,23.00
2022-09-11T07:51:52.035Z,23.20
2022-09-11T07:52:52.013Z,22.90
2022-09-11T07:53:52.037Z,22.20
2022-09-11T07:54:51.991Z,21.20
2022-09-11T07:55:51.978Z,23.20
2022-09-11T07:56:51.979Z,21.50
2022-09-11T07:57:51.950Z,21.50
2022-09-11T07:58:51.945Z,21.60
2022-09-11T07:59:52.026Z,21.50
2022-09-11T08:00:51.980Z,22.00
2022-09-11T08:01:51.917Z,21.60
2022-09-11T08:02:51.901Z,20.50
2022-09-11T08:03:51.896Z,20.50
2022-09-11T08:04:51.933Z,21.80
2022-09-11T08:05:51.881Z,20.80
2022-09-11T08:06:51.854Z,20.80
2022-09-11T08:07:51.839Z,20.80
2022-09-11T08:08:51.844Z,20.20
2022-09-11T08:10:10.160Z,20.90
2022-09-11T08:10:52.808Z,20.60
2022-09-11T08:11:51.797Z,20.50
2022-09-11T08:12:51.800Z,20.20
2022-09-11T08:13:51.773Z,19.70
2022-09-11T08:14:51.765Z,18.90
2022-09-11T08:15:51.748Z,19.10
2022-09-11T08:16:51.801Z,18.90
2022-09-11T08:17:51.729Z,18.20
2022-09-11T08:18:51.720Z,18.10
2022-09-11T08:19:51.718Z,18.60
2022-09-11T08:20:51.708Z,17.90
2022-09-11T08:21:51.710Z,18.20
2022-09-11T08:22:51.674Z,18.60
2022-09-11T08:23:51.660Z,18.00
2022-09-11T08:24:51.752Z,17.80
2022-09-11T08:25:51.637Z,18.00
2022-09-11T08:26:51.643Z,17.70
2022-09-11T08:27:51.615Z,18.70
2022-09-11T08:28:51.612Z,17.10
2022-09-11T08:29:51.598Z,17.90
2022-09-11T08:30:51.739Z,17.50
2022-09-11T08:31:51.588Z,17.70
2022-09-11T08:32:51.563Z,16.90
2022-09-11T08:33:51.547Z,16.70
2022-09-11T08:34:51.545Z,17.30
2022-09-11T08:35:51.527Z,17.40
2022-09-11T08:36:51.535Z,17.40
2022-09-11T08:37:54.694Z,16.70
2022-09-11T08:38:51.499Z,17.10
2022-09-11T08:39:51.555Z,16.90
2022-09-11T08:40:51.479Z,16.40
2022-09-11T08:41:51.473Z,16.10
2022-09-11T08:42:51.454Z,16.80
2022-09-11T08:43:51.438Z,16.10
2022-09-11T08:44:51.447Z,15.80
2022-09-11T08:45:51.423Z,17.40
2022-09-11T08:46:51.421Z,16.60
2022-09-11T08:47:51.394Z,15.80
2022-09-11T08:48:51.388Z,15.20
2022-09-11T08:49:58.883Z,16.00
2022-09-11T08:50:51.368Z,15.80
2022-09-11T08:51:51.348Z,15.00
2022-09-11T08:52:51.343Z,15.00
2022-09-11T08:53:51.345Z,15.30
2022-09-11T08:54:51.330Z,15.10
2022-09-11T08:55:51.304Z,14.80
2022-09-11T08:56:51.419Z,14.30
2022-09-11T08:57:51.283Z,14.60
2022-09-11T08:58:51.275Z,14.70
2022-09-11T08:59:51.276Z,14.60
2022-09-11T09:00:51.455Z,14.00
2022-09-11T09:01:51.287Z,14.70
2022-09-11T09:02:51.244Z,14.30
2022-09-11T09:03:51.217Z,14.30
2022-09-11T09:04:51.228Z,13.40
2022-09-11T09:05:51.192Z,13.40
2022-09-11T09:06:51.190Z,13.70
2022-09-11T09:07:51.176Z,14.50
2022-09-11T09:08:51.171Z,14.00
2022-09-11T09:09:51.189Z,14.20
2022-09-11T09:10:51.144Z,13.90
2022-09-11T09:11:51.131Z,13.30
2022-09-11T09:12:51.145Z,13.60
2022-09-11T09:13:51.107Z,12.40
2022-09-11T09:14:51.100Z,13.30
2022-09-11T09:15:51.138Z,12.60
2022-09-11T09:16:51.077Z,12.80
2022-09-11T09:17:51.074Z,13.10
2022-09-11T09:18:51.054Z,12.90
2022-09-11T09:19:51.040Z,13.30
2022-09-11T09:20:51.035Z,13.10
2022-09-11T09:21:51.020Z,13.00
2022-09-11T09:22:51.021Z,13.00
2022-09-11T09:23:50.999Z,13.50
2022-09-11T09:24:51.001Z,12.90
2022-09-11T09:25:50.992Z,12.40
2022-09-11T09:26:50.979Z,13.50
2022-09-11T09:27:50.955Z,13.70
2022-09-11T09:28:50.951Z,13.30
2022-09-11T09:29:50.928Z,12.90
2022-09-11T09:30:51.002Z,13.20
2022-09-11T09:31:50.906Z,13.20
2022-09-11T09:32:50.910Z,13.20
2022-09-11T09:33:50.883Z,13.40
2022-09-11T09:34:50.878Z,12.60
2022-09-11T09:35:50.862Z,12.90
2022-09-11T09:36:50.854Z,12.40
2022-09-11T09:37:50.852Z,12.60
2022-09-11T09:38:50.833Z,12.30
2022-09-11T09:39:50.834Z,12.20
2022-09-11T09:40:50.820Z,11.90
2022-09-11T09:41:50.815Z,12.80
2022-09-11T09:42:50.800Z,12.40
2022-09-11T09:43:50.772Z,12.40
2022-09-11T09:44:50.768Z,12.50
2022-09-11T09:45:50.790Z,13.20
2022-09-11T09:46:51.291Z,12.60
2022-09-11T09:47:50.743Z,12.00
2022-09-11T09:48:50.722Z,12.40
2022-09-11T09:49:50.708Z,13.00
2022-09-11T09:50:50.700Z,12.10
2022-09-11T09:51:50.686Z,12.40
2022-09-11T09:52:50.693Z,11.30
2022-09-11T09:53:50.665Z,12.10
2022-09-11T09:54:50.670Z,11.80
2022-09-11T09:55:50.641Z,11.70
2022-09-11T09:56:50.635Z,11.80
2022-09-11T09:57:50.649Z,11.70
2022-09-11T09:58:50.613Z,11.80
2022-09-11T09:59:50.639Z,11.60
2022-09-11T10:00:50.590Z,12.30
2022-09-11T10:01:50.670Z,11.70
2022-09-11T10:02:50.575Z,11.60
2022-09-11T10:03:50.557Z,11.40
2022-09-11T10:04:50.541Z,11.50
2022-09-11T10:05:50.540Z,10.90
2022-09-11T10:06:50.519Z,10.10
2022-09-11T10:07:50.526Z,10.40
2022-09-11T10:08:50.496Z,9.30
2022-09-11T10:09:50.501Z,9.30
2022-09-11T10:10:50.475Z,9.80
2022-09-11T10:11:50.468Z,9.30
2022-09-11T10:12:50.452Z,10.00
2022-09-11T10:13:50.469Z,9.60
2022-09-11T10:14:52.220Z,9.80
2022-09-11T10:15:50.562Z,10.00
2022-09-11T10:16:50.419Z,10.50
2022-09-11T10:17:50.409Z,10.60
2022-09-11T10:18:50.392Z,10.60
2022-09-11T10:19:50.381Z,9.90
2022-09-11T10:20:50.367Z,10.00
2022-09-11T10:21:50.377Z,10.80
2022-09-11T10:22:50.384Z,10.20
2022-09-11T10:23:50.338Z,10.20
2022-09-11T10:24:50.323Z,10.50
2022-09-11T10:25:51.301Z,10.50
2022-09-11T10:26:50.311Z,10.90
2022-09-11T10:27:50.293Z,10.20
2022-09-11T10:28:50.278Z,10.90
2022-09-11T10:29:50.299Z,11.20
2022-09-11T10:30:50.295Z,10.50
2022-09-11T10:31:50.262Z,11.60
2022-09-11T10:32:50.247Z,10.70
2022-09-11T10:33:50.227Z,11.60
2022-09-11T10:34:50.210Z,12.20
2022-09-11T10:35:50.214Z,12.20
2022-09-11T10:36:50.188Z,12.00
2022-09-11T10:37:50.183Z,11.30
2022-09-11T10:38:50.168Z,11.70
2022-09-11T10:39:50.243Z,11.80
2022-09-11T10:40:50.159Z,12.80
2022-09-11T10:41:50.140Z,12.30
2022-09-11T10:42:50.135Z,12.50
2022-09-11T10:43:50.130Z,12.80
2022-09-11T10:44:50.098Z,11.50
2022-09-11T10:45:50.155Z,12.00
2022-09-11T10:46:50.081Z,11.80
2022-09-11T10:47:50.082Z,11.60
2022-09-11T10:48:50.056Z,12.40
2022-09-11T10:49:50.048Z,11.60
2022-09-11T10:50:57.541Z,12.00
2022-09-11T10:51:50.037Z,12.20
2022-09-11T10:52:50.009Z,13.00
2022-09-11T10:53:50.003Z,12.00
2022-09-11T10:54:50.002Z,12.60
2022-09-11T10:55:49.988Z,12.30
2022-09-11T10:56:49.966Z,12.40
2022-09-11T10:57:49.971Z,12.90
2022-09-11T10:58:54.419Z,12.60
2022-09-11T10:59:49.941Z,12.90
2022-09-11T11:00:49.924Z,12.40
2022-09-11T11:01:50.080Z,12.90
2022-09-11T11:02:49.907Z,12.60
2022-09-11T11:03:49.906Z,12.30
2022-09-11T11:04:49.885Z,12.40
2022-09-11T11:05:49.875Z,11.20
2022-09-11T11:06:49.868Z,12.30
2022-09-11T11:07:49.850Z,11.80
2022-09-11T11:08:49.836Z,11.10
2022-09-11T11:09:49.846Z,12.00
2022-09-11T11:10:49.811Z,11.10
2022-09-11T11:11:49.806Z,11.70
2022-09-11T11:12:49.801Z,10.90
2022-09-11T11:13:49.800Z,11.50
2022-09-11T11:14:49.767Z,12.00
2022-09-11T11:15:49.825Z,11.60
2022-09-11T11:16:49.747Z,11.30
2022-09-11T11:17:49.758Z,10.60
2022-09-11T11:18:49.721Z,11.90
2022-09-11T11:19:49.718Z,11.80
2022-09-11T11:20:49.714Z,11.50
2022-09-11T11:21:49.695Z,11.10
2022-09-11T11:22:49.679Z,10.90
2022-09-11T11:23:49.672Z,11.10
2022-09-11T11:24:49.655Z,10.30
2022-09-11T11:25:49.662Z,10.70
2022-09-11T11:26:49.633Z,10.20
2022-09-11T11:27:49.627Z,10.70
2022-09-11T11:28:49.612Z,10.30
2022-09-11T11:29:49.605Z,10.40
2022-09-11T11:30:49.661Z,9.50
2022-09-11T11:31:49.595Z,9.40
2022-09-11T11:32:49.566Z,9.40
2022-09-11T11:33:49.592Z,9.70
2022-09-11T11:34:49.546Z,9.00
2022-09-11T11:35:49.555Z,9.50
2022-09-11T11:36:49.522Z,9.40
2022-09-11T11:37:49.516Z,8.60
2022-09-11T11:38:49.535Z,9.50
2022-09-11T11:39:49.583Z,9.50
2022-09-11T11:40:49.483Z,9.90
2022-09-11T11:41:49.474Z,9.00
2022-09-11T11:42:54.024Z,9.60
2022-09-11T11:43:50.462Z,9.90
2022-09-11T11:44:49.439Z,10.00
2022-09-11T11:45:49.463Z,9.50
2022-09-11T11:46:49.424Z,9.10
2022-09-11T11:47:49.416Z,9.00
2022-09-11T11:48:49.399Z,8.40
2022-09-11T11:49:49.422Z,8.60
2022-09-11T11:50:49.367Z,8.90
2022-09-11T11:51:49.362Z,8.80
2022-09-11T11:52:49.351Z,8.80
2022-09-11T11:53:49.342Z,9.10
2022-09-11T11:54:49.336Z,8.00
2022-09-11T11:55:49.319Z,7.10
2022-09-11T11:56:49.313Z,7.90
2022-09-11T11:57:49.295Z,8.20
2022-09-11T11:58:49.280Z,8.00
2022-09-11T11:59:49.274Z,8.60
2022-09-11T12:00:53.399Z,7.80
2022-09-11T12:01:50.289Z,7.20
2022-09-11T12:02:49.266Z,8.20
2022-09-11T12:03:49.285Z,8.10
2022-09-11T12:04:49.226Z,7.50
2022-09-11T12:05:49.226Z,6.40
2022-09-11T12:06:49.191Z,7.30
2022-09-11T12:07:49.200Z,7.80
2022-09-11T12:08:49.170Z,7.70
2022-09-11T12:09:49.163Z,7.10
2022-09-11T12:10:49.160Z,7.80
2022-09-11T12:11:49.152Z,7.30
2022-09-11T12:12:49.136Z,7.40
2022-09-11T12:13:49.123Z,7.40
2022-09-11T12:14:49.103Z,6.70
2022-09-11T12:15:49.143Z,6.80
2022-09-11T12:16:49.081Z,6.80
2022-09-11T12:17:49.075Z,6.60
2022-09-11T12:18:49.060Z,6.50
2022-09-11T12:19:49.054Z,6.60
2022-09-11T12:20:49.051Z,7.10
2022-09-11T12:21:49.050Z,6.10
2022-09-11T12:22:49.015Z,5.40
2022-09-11T12:23:49.008Z,5.50
2022-09-11T12:24:48.992Z,5.60
2022-09-11T12:25:48.988Z,5.90
2022-09-11T12:26:48.983Z,6.10
2022-09-11T12:27:48.985Z,5.70
2022-09-11T12:28:48.950Z,6.20
2022-09-11T12:29:48.958Z,5.90
2022-09-11T12:30:48.935Z,5.60
2022-09-11T12:31:48.924Z,5.30
2022-09-11T12:32:48.940Z,5.40
2022-09-11T12:33:48.901Z,5.60
2022-09-11T12:34:48.885Z,6.10
2022-09-11T12:35:48.877Z,5.50
2022-09-11T12:36:48.861Z,5.30
2022-09-11T12:37:53.527Z,5.50
2022-09-11T12:38:49.860Z,5.70
2022-09-11T12:39:48.864Z,5.80
2022-09-11T12:40:48.816Z,5.80
2022-09-11T12:41:48.811Z,6.10
2022-09-11T12:42:48.808Z,5.60
2022-09-11T12:43:48.800Z,5.80
2022-09-11T12:44:48.772Z,6.10
2022-09-11T12:45:48.811Z,5.50
2022-09-11T12:46:48.752Z,5.40
2022-09-11T12:47:48.743Z,5.80
2022-09-11T12:49:05.674Z,5.50
2022-09-11T12:49:49.720Z,5.80
2022-09-11T12:50:48.705Z,5.40
2022-09-11T12:51:56.206Z,6.10
2022-09-11T12:52:48.681Z,6.10
2022-09-11T12:53:48.705Z,5.60
2022-09-11T12:54:48.660Z,5.40
2022-09-11T12:55:48.666Z,4.70